createdAt,value
2018-07-20T00:03:55.937Z,21.05
2018-07-20T00:08:58.098Z,21.12
2018-07-20T00:14:00.255Z,21.13
2018-07-20T00:19:02.429Z,21.08
2018-07-20T00:24:04.583Z,21.10
2018-07-20T00:29:06.743Z,21.63
2018-07-20T00:34:08.891Z,21.45
2018-07-20T00:39:11.113Z,21.22
2018-07-20T00:44:13.260Z,20.94
2018-07-20T00:49:15.418Z,20.87
2018-07-20T00:54:17.581Z,20.84
2018-07-20T00:59:19.761Z,20.67
2018-07-20T01:04:21.944Z,20.60
2018-07-20T01:09:24.070Z,20.70
2018-07-20T01:14:26.187Z,20.50
2018-07-20T01:19:28.309Z,18.71
2018-07-20T01:24:30.463Z,18.81
2018-07-20T01:29:32.613Z,18.41
2018-07-20T01:34:41.612Z,18.15
2018-07-20T01:39:43.718Z,17.94
2018-07-20T01:44:45.875Z,17.78
2018-07-20T01:49:47.986Z,17.68
2018-07-20T01:54:50.171Z,17.58
2018-07-20T01:59:52.299Z,17.40
2018-07-20T02:04:54.434Z,17.42
2018-07-20T02:09:56.548Z,17.40
2018-07-20T02:14:59.203Z,17.38
2018-07-20T02:20:01.373Z,17.48
2018-07-20T02:25:03.570Z,17.12
2018-07-20T02:30:06.267Z,17.07
2018-07-20T02:35:08.427Z,16.88
2018-07-20T02:40:10.601Z,16.54
2018-07-20T02:45:12.777Z,16.52
2018-07-20T02:50:14.922Z,16.56
2018-07-20T02:55:17.113Z,16.59
2018-07-20T03:00:19.264Z,16.50
2018-07-20T03:05:21.411Z,16.55
2018-07-20T03:10:23.549Z,16.50
2018-07-20T03:15:25.660Z,16.45
2018-07-20T03:20:27.804Z,16.41
2018-07-20T03:25:29.970Z,16.47
2018-07-20T03:30:32.131Z,16.46
2018-07-20T03:35:34.274Z,16.50
2018-07-20T03:40:36.395Z,16.50
2018-07-20T03:45:38.520Z,16.41
2018-07-20T03:50:40.703Z,16.29
2018-07-20T03:55:42.827Z,16.24
2018-07-20T04:00:44.991Z,16.35
2018-07-20T04:05:47.098Z,16.32
2018-07-20T04:10:49.525Z,16.65
2018-07-20T04:15:51.658Z,16.84
2018-07-20T04:20:53.795Z,16.92
2018-07-20T04:25:55.957Z,16.90
2018-07-20T04:30:58.134Z,16.92
2018-07-20T04:36:00.276Z,16.93
2018-07-20T04:41:02.419Z,17.02
2018-07-20T04:46:04.563Z,17.01
2018-07-20T04:51:06.770Z,17.10
2018-07-20T04:56:08.930Z,17.32
2018-07-20T05:01:11.071Z,17.51
2018-07-20T05:06:13.193Z,17.73
2018-07-20T05:11:15.331Z,17.88
2018-07-20T05:16:17.494Z,17.98
2018-07-20T05:21:19.667Z,18.12
2018-07-20T05:26:21.815Z,18.12
2018-07-20T05:31:23.918Z,18.20
2018-07-20T05:36:26.075Z,18.33
2018-07-20T05:41:28.272Z,18.39
2018-07-20T05:46:30.386Z,18.57
2018-07-20T05:51:32.521Z,18.50
2018-07-20T05:56:34.659Z,18.65
2018-07-20T06:01:36.809Z,18.80
2018-07-20T06:06:38.927Z,19.00
2018-07-20T06:11:41.121Z,19.12
2018-07-20T06:16:43.266Z,19.41
2018-07-20T06:21:45.394Z,19.59
2018-07-20T06:26:47.566Z,19.82
2018-07-20T06:31:49.726Z,19.92
2018-07-20T06:36:51.886Z,20.03
2018-07-20T06:41:54.026Z,20.05
2018-07-20T06:46:56.211Z,20.18
2018-07-20T06:51:58.372Z,20.43
2018-07-20T06:57:00.564Z,20.57
2018-07-20T07:02:02.756Z,20.78
2018-07-20T07:07:05.746Z,20.94
2018-07-20T07:12:07.916Z,20.93
2018-07-20T07:17:10.305Z,21.02
2018-07-20T07:22:12.579Z,21.19
2018-07-20T07:27:14.801Z,21.29
2018-07-20T07:32:16.946Z,21.40
2018-07-20T07:37:19.089Z,21.50
2018-07-20T07:42:21.243Z,21.70
2018-07-20T07:47:23.413Z,21.79
2018-07-20T07:52:25.547Z,21.84
2018-07-20T07:57:27.674Z,21.99
2018-07-20T08:02:30.664Z,22.10
2018-07-20T08:07:32.817Z,22.12
2018-07-20T08:12:34.974Z,22.30
2018-07-20T08:17:37.128Z,22.50
2018-07-20T08:22:39.297Z,22.56
2018-07-20T08:27:41.521Z,22.64
2018-07-20T08:32:43.668Z,22.80
2018-07-20T08:37:45.850Z,22.86
2018-07-20T08:42:48.032Z,22.99
2018-07-20T08:47:50.211Z,23.05
2018-07-20T08:52:52.381Z,23.07
2018-07-20T08:57:54.567Z,23.24
2018-07-20T09:02:56.703Z,23.31
2018-07-20T09:07:58.910Z,23.33
2018-07-20T09:13:01.160Z,23.29
2018-07-20T09:18:03.304Z,23.36
2018-07-20T09:23:05.586Z,23.61
2018-07-20T09:28:07.754Z,23.67
2018-07-20T09:33:09.906Z,23.63
2018-07-20T09:38:12.089Z,23.65
2018-07-20T09:43:14.318Z,23.58
2018-07-20T09:48:16.493Z,23.79
2018-07-20T09:53:18.735Z,23.82
2018-07-20T09:58:20.903Z,23.92
2018-07-20T10:03:23.091Z,24.19
2018-07-20T10:08:25.205Z,24.15
2018-07-20T10:13:27.387Z,24.30
2018-07-20T10:18:29.532Z,24.48
2018-07-20T10:23:31.712Z,24.45
2018-07-20T10:28:33.966Z,24.62
2018-07-20T10:33:36.100Z,24.88
2018-07-20T10:38:38.281Z,24.78
2018-07-20T10:43:40.428Z,24.71
2018-07-20T10:48:43.338Z,24.88
2018-07-20T10:53:45.508Z,25.18
2018-07-20T10:58:47.636Z,25.35
2018-07-20T11:03:49.756Z,25.50
2018-07-20T11:08:51.965Z,25.68
2018-07-20T11:13:54.444Z,25.74
2018-07-20T11:18:56.644Z,25.90
2018-07-20T11:23:58.819Z,26.22
2018-07-20T11:29:01.106Z,26.60
2018-07-20T11:34:03.300Z,26.98
2018-07-20T11:39:07.161Z,27.07
2018-07-20T11:44:09.406Z,27.36
2018-07-20T11:49:11.607Z,27.54
2018-07-20T11:54:13.790Z,27.66
2018-07-20T11:59:16.014Z,27.91
2018-07-20T12:04:18.163Z,28.03
2018-07-20T12:09:20.330Z,28.52
2018-07-20T12:14:22.483Z,28.82
2018-07-20T12:19:24.628Z,28.88
2018-07-20T12:24:26.805Z,29.14
2018-07-20T12:29:28.965Z,29.49
2018-07-20T12:34:31.138Z,29.40
2018-07-20T12:39:33.295Z,29.17
2018-07-20T12:44:35.507Z,28.96
2018-07-20T12:49:37.684Z,29.51
2018-07-20T12:54:39.922Z,29.37
2018-07-20T12:59:42.104Z,29.97
2018-07-20T13:04:44.279Z,30.31
2018-07-20T13:09:46.458Z,30.43
2018-07-20T13:14:48.898Z,30.68
2018-07-20T13:19:51.422Z,30.94
2018-07-20T13:24:53.657Z,31.16
2018-07-20T13:29:55.840Z,31.38
2018-07-20T13:34:58.062Z,31.36
2018-07-20T13:40:00.292Z,30.84
2018-07-20T13:45:02.575Z,30.98
2018-07-20T13:50:04.938Z,31.41
2018-07-20T13:55:07.115Z,31.84
2018-07-20T14:00:09.380Z,31.75
2018-07-20T14:05:11.539Z,30.83
2018-07-20T14:10:13.723Z,31.22
2018-07-20T14:15:15.909Z,31.54
2018-07-20T14:20:18.062Z,31.81
2018-07-20T14:25:20.223Z,31.24
2018-07-20T14:30:22.396Z,31.77
2018-07-20T14:35:24.599Z,31.65
2018-07-20T14:40:26.796Z,31.69
2018-07-20T14:45:28.974Z,31.96
2018-07-20T14:50:31.117Z,31.93
2018-07-20T14:55:33.311Z,31.94
2018-07-20T15:00:35.472Z,31.46
2018-07-20T15:05:37.812Z,31.08
2018-07-20T15:10:40.023Z,30.86
2018-07-20T15:15:42.235Z,30.47
2018-07-20T15:20:44.437Z,30.51
2018-07-20T15:25:46.652Z,30.40
2018-07-20T15:30:48.921Z,30.53
2018-07-20T15:35:51.101Z,30.41
2018-07-20T15:40:53.339Z,30.43
2018-07-20T15:46:05.770Z,30.29
2018-07-20T15:50:57.695Z,30.06
2018-07-20T15:55:59.927Z,30.12
2018-07-20T16:01:02.169Z,30.08
2018-07-20T16:06:04.581Z,29.99
2018-07-20T16:11:06.789Z,29.63
2018-07-20T16:16:08.989Z,29.58
2018-07-20T16:21:11.158Z,29.34
2018-07-20T16:26:13.398Z,29.70
2018-07-20T16:31:15.539Z,29.77
2018-07-20T16:36:17.742Z,29.67
2018-07-20T16:41:19.918Z,29.47
2018-07-20T16:46:22.096Z,29.49
2018-07-20T16:51:24.283Z,29.39
2018-07-20T16:56:26.470Z,29.39
2018-07-20T17:01:28.630Z,28.92
2018-07-20T17:06:37.921Z,28.93
2018-07-20T17:11:40.505Z,29.02
2018-07-20T17:16:42.699Z,28.82
2018-07-20T17:21:44.895Z,28.77
2018-07-20T17:26:47.076Z,28.62
2018-07-20T17:31:49.336Z,28.66
2018-07-20T17:36:51.487Z,28.37
2018-07-20T17:41:53.690Z,28.06
2018-07-20T17:46:55.885Z,27.86
2018-07-20T17:51:58.075Z,27.55
2018-07-20T17:57:00.249Z,27.59
2018-07-20T18:02:02.430Z,27.59
2018-07-20T18:07:04.670Z,27.24
2018-07-20T18:12:06.864Z,26.84
2018-07-20T18:17:09.096Z,26.73
2018-07-20T18:22:11.274Z,26.42
2018-07-20T18:27:13.981Z,26.27
2018-07-20T18:32:16.112Z,26.15
2018-07-20T18:37:18.312Z,26.08
2018-07-20T18:42:20.506Z,25.84
2018-07-20T18:47:22.815Z,25.80
2018-07-20T18:52:25.000Z,25.60
2018-07-20T18:57:27.239Z,25.60
2018-07-20T19:02:29.457Z,25.54
2018-07-20T19:07:31.635Z,25.60
2018-07-20T19:12:33.822Z,25.53
2018-07-20T19:17:36.055Z,25.38
2018-07-20T19:22:38.267Z,25.31
2018-07-20T19:27:40.479Z,25.26
2018-07-20T19:32:42.717Z,25.19
2018-07-20T19:37:44.960Z,25.00
2018-07-20T19:42:47.189Z,24.96
2018-07-20T19:47:49.446Z,24.84
2018-07-20T19:52:51.725Z,24.71
2018-07-20T19:57:53.925Z,24.69
2018-07-20T20:02:56.136Z,24.72
2018-07-20T20:07:58.377Z,24.68
2018-07-20T20:13:00.580Z,24.68
2018-07-20T20:18:02.844Z,24.60
2018-07-20T20:23:05.136Z,24.50
2018-07-20T20:28:07.364Z,24.38
2018-07-20T20:33:09.688Z,24.24
2018-07-20T20:38:11.916Z,24.00
2018-07-20T20:43:14.139Z,23.79
2018-07-20T20:48:16.412Z,23.59
2018-07-20T20:53:18.583Z,23.56
2018-07-20T20:58:20.842Z,23.23
2018-07-20T21:03:23.048Z,23.23
2018-07-20T21:08:25.278Z,23.32
2018-07-20T21:13:27.464Z,23.55
2018-07-20T21:18:29.701Z,23.43
2018-07-20T21:23:31.916Z,23.32
2018-07-20T21:28:34.155Z,23.10
2018-07-20T21:33:36.420Z,22.94
2018-07-20T21:38:38.622Z,22.72
2018-07-20T21:43:40.884Z,22.83
2018-07-20T21:48:43.132Z,22.87
2018-07-20T21:53:45.348Z,22.83
2018-07-20T21:58:47.546Z,22.85
2018-07-20T22:03:49.775Z,22.71
2018-07-20T22:08:51.984Z,22.66
2018-07-20T22:13:54.227Z,22.60
2018-07-20T22:18:56.452Z,22.29
2018-07-20T22:23:58.672Z,21.99
2018-07-20T22:29:00.850Z,21.65
2018-07-20T22:34:03.113Z,21.60
2018-07-20T22:39:08.200Z,21.38
2018-07-20T22:44:10.384Z,21.11
2018-07-20T22:49:12.575Z,21.14
2018-07-20T22:54:14.724Z,21.14
2018-07-20T22:59:16.889Z,20.96
2018-07-20T23:04:19.047Z,20.99
2018-07-20T23:09:21.219Z,20.81
2018-07-20T23:14:23.386Z,20.83
2018-07-20T23:19:25.562Z,20.90
2018-07-20T23:24:27.720Z,20.81
2018-07-20T23:29:29.891Z,20.79
2018-07-20T23:34:32.040Z,20.65
2018-07-20T23:39:34.210Z,20.62
2018-07-20T23:44:36.414Z,20.54
2018-07-20T23:49:38.557Z,20.46
2018-07-20T23:54:40.721Z,20.28
2018-07-20T23:59:42.961Z,20.32
